Time;durP1;ratioP1;P1;durP2;ratioP2;P2;SDS_P1;SDS_P2;PMS_P1;PMS_P2;Temp;Humidity;BMP_temperature;BMP_pressure;BME280_temperature;BME280_humidity;BME280_pressure;Samples;Min_cycle;Max_cycle;Signal;HPM_P1;HPM_P2
2021/12/13 00:00:07;;;;;;;223.07;39.65;;;10.10;99.90;;;;;;4949841;28;20047;-79
2021/12/13 00:02:42;;;;;;;177.93;36.15;;;10.10;99.90;;;;;;4947054;29;20069;-78
2021/12/13 00:05:12;;;;;;;207.18;38.58;;;10.10;99.90;;;;;;4949170;28;20050;-79
2021/12/13 00:07:44;;;;;;;211.35;38.53;;;10.10;99.90;;;;;;4912828;29;20052;-78
2021/12/13 00:10:17;;;;;;;195.40;35.47;;;10.10;99.90;;;;;;4926119;29;20064;-79
2021/12/13 00:12:47;;;;;;;191.23;36.05;;;10.10;99.90;;;;;;4912649;29;20044;-78
2021/12/13 00:15:26;;;;;;;175.75;31.52;;;10.10;99.90;;;;;;4943696;29;20573;-79
2021/12/13 00:17:54;;;;;;;183.38;35.22;;;10.10;99.90;;;;;;4922658;29;20052;-80
2021/12/13 00:20:48;;;;;;;177.05;34.42;;;10.10;99.90;;;;;;4923668;29;20048;-79
2021/12/13 00:23:26;;;;;;;192.02;35.35;;;10.10;99.90;;;;;;4926843;29;20066;-79
2021/12/13 00:25:55;;;;;;;221.27;40.20;;;10.10;99.90;;;;;;4913424;29;20060;-79
2021/12/13 00:28:25;;;;;;;221.00;39.75;;;10.10;99.90;;;;;;4925090;29;20059;-79
2021/12/13 00:31:24;;;;;;;208.95;36.22;;;10.10;99.90;;;;;;4927797;29;20557;-80
2021/12/13 00:34:07;;;;;;;230.60;37.97;;;10.10;99.90;;;;;;4922518;29;20060;-79
2021/12/13 00:36:47;;;;;;;203.50;35.95;;;10.10;99.90;;;;;;4911948;29;20060;-79
2021/12/13 00:39:24;;;;;;;213.57;38.88;;;10.10;99.90;;;;;;4898032;29;20048;-79
2021/12/13 00:41:51;;;;;;;213.57;40.42;;;10.10;99.90;;;;;;4926230;29;20052;-79
2021/12/13 00:44:37;;;;;;;151.90;30.67;;;10.10;99.90;;;;;;4915936;29;20158;-79
2021/12/13 00:47:07;;;;;;;178.30;34.60;;;10.10;99.90;;;;;;4917268;29;20048;-79
2021/12/13 00:49:37;;;;;;;169.65;33.08;;;10.10;99.90;;;;;;4931870;29;20059;-79
2021/12/13 00:52:04;;;;;;;151.85;30.60;;;10.10;99.90;;;;;;4907775;29;20055;-79
2021/12/13 00:54:34;;;;;;;151.88;32.92;;;10.10;99.90;;;;;;4898036;29;20099;-79
2021/12/13 00:57:00;;;;;;;168.10;34.17;;;10.10;99.90;;;;;;4927670;29;20044;-79
2021/12/13 00:59:30;;;;;;;141.57;30.27;;;10.10;99.90;;;;;;4916334;29;20040;-80
2021/12/13 01:02:00;;;;;;;134.35;30.23;;;10.10;99.90;;;;;;4917185;29;20051;-79
2021/12/13 01:05:06;;;;;;;153.27;34.17;;;10.10;99.90;;;;;;4897225;29;20417;-81
2021/12/13 01:07:59;;;;;;;138.10;29.92;;;10.10;99.90;;;;;;4934629;28;20095;-79
2021/12/13 01:10:43;;;;;;;150.18;32.47;;;10.20;99.90;;;;;;4953636;28;20058;-81
2021/12/13 01:13:26;;;;;;;140.43;30.33;;;10.10;99.90;;;;;;4953664;28;20057;-80
2021/12/13 01:17:11;;;;;;;135.02;29.30;;;10.10;99.90;;;;;;4965498;28;20047;-79
2021/12/13 01:22:01;;;;;;;149.17;30.80;;;10.10;99.90;;;;;;4932433;29;20114;-79
2021/12/13 01:25:14;;;;;;;139.02;30.88;;;10.10;99.90;;;;;;4941143;28;20062;-80
2021/12/13 01:27:33;;;;;;;115.00;26.23;;;10.10;99.90;;;;;;4951048;28;20121;-79
2021/12/13 01:29:59;;;;;;;137.68;28.90;;;10.10;99.90;;;;;;4942428;29;20051;-79
2021/12/13 01:32:34;;;;;;;;;;;10.10;99.90;;;;;;4934603;29;20039;-79
2021/12/13 01:35:00;;;;;;;115.65;28.10;;;10.10;99.90;;;;;;4950607;29;20368;-80
2021/12/13 01:37:31;;;;;;;117.28;25.58;;;10.10;99.90;;;;;;4919843;28;20050;-79
2021/12/13 01:40:08;;;;;;;141.57;28.52;;;10.20;99.90;;;;;;4937368;28;20169;-79
2021/12/13 01:42:34;;;;;;;127.10;26.98;;;10.10;99.90;;;;;;4952450;28;20058;-80
2021/12/13 01:45:07;;;;;;;145.55;30.33;;;10.10;99.90;;;;;;4953513;28;20523;-80
2021/12/13 01:47:41;;;;;;;128.60;26.92;;;10.20;99.90;;;;;;4939040;29;20043;-79
2021/12/13 01:50:19;;;;;;;121.25;25.65;;;10.10;99.90;;;;;;4936633;28;20472;-79
2021/12/13 01:52:48;;;;;;;110.18;26.83;;;10.10;99.90;;;;;;4932196;29;20066;-77
2021/12/13 01:55:25;;;;;;;115.45;26.45;;;10.10;99.90;;;;;;4933240;29;20110;-77
2021/12/13 01:58:18;;;;;;;109.95;24.67;;;10.10;99.90;;;;;;4918035;29;20098;-77
2021/12/13 02:01:09;;;;;;;106.32;24.85;;;10.10;99.90;;;;;;4946364;28;20074;-77
2021/12/13 02:03:48;;;;;;;111.80;25.57;;;10.20;99.90;;;;;;4952620;28;20070;-78
2021/12/13 02:06:23;;;;;;;109.60;24.77;;;10.20;99.90;;;;;;4952051;28;20050;-77
2021/12/13 02:08:52;;;;;;;85.93;23.13;;;10.10;99.90;;;;;;4947097;28;20170;-77
2021/12/13 02:11:20;;;;;;;75.60;22.42;;;10.20;99.90;;;;;;4934885;29;20059;-77
2021/12/13 02:14:04;;;;;;;77.75;22.40;;;10.20;99.90;;;;;;4950162;28;20137;-77
2021/12/13 02:19:31;;;;;;;73.03;23.67;;;10.20;99.90;;;;;;4953436;28;20098;-77
2021/12/13 02:22:23;;;;;;;73.85;23.85;;;10.10;99.90;;;;;;4939803;29;20130;-76
2021/12/13 02:24:51;;;;;;;72.50;21.42;;;10.20;99.90;;;;;;4932748;29;20051;-76
2021/12/13 02:27:24;;;;;;;66.88;20.38;;;10.20;99.90;;;;;;4933758;29;20051;-77
2021/12/13 02:29:53;;;;;;;65.50;21.15;;;10.20;99.90;;;;;;4933144;29;20085;-77
2021/12/13 02:32:19;;;;;;;60.10;20.58;;;10.20;99.90;;;;;;4933072;29;20386;-76
2021/12/13 02:34:46;;;;;;;67.47;21.73;;;10.20;99.90;;;;;;4945891;28;20063;-76
2021/12/13 02:37:12;;;;;;;69.32;21.15;;;10.20;99.90;;;;;;4936075;28;20100;-76
2021/12/13 02:39:49;;;;;;;58.45;20.42;;;10.20;99.90;;;;;;4952345;28;20051;-77
2021/12/13 02:42:18;;;;;;;64.72;21.30;;;10.20;99.90;;;;;;4954310;28;20051;-77
2021/12/13 02:44:56;;;;;;;67.80;21.05;;;10.20;99.90;;;;;;4956624;28;20096;-76
2021/12/13 02:47:38;;;;;;;62.38;21.40;;;10.20;99.90;;;;;;4940343;28;20055;-77
2021/12/13 02:50:20;;;;;;;67.18;21.35;;;10.20;99.90;;;;;;4938592;29;20047;-76
2021/12/13 02:52:46;;;;;;;57.50;20.30;;;10.10;99.90;;;;;;4936841;29;20054;-75
2021/12/13 02:55:28;;;;;;;54.38;19.77;;;10.10;99.90;;;;;;4938606;29;20046;-76
2021/12/13 02:57:57;;;;;;;62.88;23.33;;;10.20;99.90;;;;;;4933370;29;20457;-76
2021/12/13 03:00:37;;;;;;;56.03;22.08;;;10.10;99.90;;;;;;4938938;29;20093;-76
2021/12/13 03:03:08;;;;;;;52.35;20.23;;;10.10;99.90;;;;;;4950148;28;20054;-76
2021/12/13 03:05:38;;;;;;;59.58;22.40;;;10.10;99.90;;;;;;4941416;28;20388;-78
2021/12/13 03:08:16;;;;;;;48.35;19.73;;;10.10;99.90;;;;;;4956189;28;20105;-75
2021/12/13 03:10:48;;;;;;;39.75;19.02;;;10.20;99.90;;;;;;4956988;28;20062;-76
2021/12/13 03:13:14;;;;;;;45.70;19.40;;;10.20;99.90;;;;;;4952113;29;20215;-76
2021/12/13 03:15:47;;;;;;;46.83;21.13;;;10.20;99.90;;;;;;4938303;29;20134;-76
2021/12/13 03:18:18;;;;;;;37.13;18.13;;;10.20;99.90;;;;;;4926081;29;20126;-76
2021/12/13 03:21:02;;;;;;;36.85;16.95;;;10.10;99.90;;;;;;4937944;29;20082;-76
2021/12/13 03:23:49;;;;;;;30.40;15.98;;;10.20;99.90;;;;;;4945918;28;20516;-76
2021/12/13 03:27:06;;;;;;;33.80;15.60;;;10.20;99.90;;;;;;4957188;28;20055;-76
2021/12/13 03:29:53;;;;;;;34.43;15.97;;;10.20;99.90;;;;;;4959659;28;20094;-75
2021/12/13 03:32:21;;;;;;;34.47;15.82;;;10.20;99.90;;;;;;4956765;28;20043;-76
2021/12/13 03:35:15;;;;;;;25.38;12.02;;;10.10;99.90;;;;;;4940384;28;20066;-75
2021/12/13 03:37:43;;;;;;;29.85;13.05;;;10.10;99.90;;;;;;4954185;28;20405;-76
2021/12/13 03:40:20;;;;;;;23.42;12.05;;;10.10;99.90;;;;;;4951706;28;20109;-75
2021/12/13 03:42:56;;;;;;;24.55;11.30;;;10.10;99.90;;;;;;4941092;28;20157;-75
2021/12/13 03:45:39;;;;;;;24.75;11.35;;;10.10;99.90;;;;;;4937702;29;20062;-76
2021/12/13 03:48:07;;;;;;;26.67;11.38;;;10.00;99.90;;;;;;4923708;29;20098;-75
2021/12/13 03:50:40;;;;;;;27.77;11.02;;;10.00;99.90;;;;;;4937557;29;20102;-76
2021/12/13 03:53:23;;;;;;;22.98;10.60;;;10.00;99.90;;;;;;4936041;29;20050;-75
2021/12/13 03:55:53;;;;;;;22.20;10.60;;;9.90;99.90;;;;;;4939225;29;20118;-76
2021/12/13 03:58:22;;;;;;;21.23;10.52;;;9.90;99.90;;;;;;4932297;29;20059;-75
2021/12/13 04:00:55;;;;;;;20.08;9.07;;;9.90;99.90;;;;;;4935727;28;20062;-75
2021/12/13 04:03:24;;;;;;;22.33;9.95;;;9.80;99.90;;;;;;4950166;29;20105;-75
2021/12/13 04:05:54;;;;;;;24.08;10.55;;;9.80;99.90;;;;;;4945644;28;20082;-77
2021/12/13 04:08:21;;;;;;;24.60;10.73;;;9.70;99.90;;;;;;4939576;28;20067;-76
2021/12/13 04:10:51;;;;;;;26.75;9.85;;;9.60;99.90;;;;;;4955369;28;20378;-75
2021/12/13 04:13:20;;;;;;;25.73;9.98;;;9.60;99.90;;;;;;4950455;29;20047;-75
2021/12/13 04:16:08;;;;;;;20.75;9.70;;;9.60;99.90;;;;;;4936666;29;20148;-75
2021/12/13 04:21:15;;;;;;;22.13;9.00;;;9.50;99.90;;;;;;4943252;28;20083;-75
2021/12/13 04:23:48;;;;;;;23.55;10.55;;;9.60;99.90;;;;;;4956180;28;20090;-78
2021/12/13 04:26:14;;;;;;;24.33;9.98;;;9.70;99.90;;;;;;4955709;28;20058;-75
2021/12/13 04:28:45;;;;;;;24.17;9.35;;;9.50;99.90;;;;;;4955872;28;20163;-78
2021/12/13 04:31:18;;;;;;;22.42;10.70;;;9.50;99.90;;;;;;4956396;28;20059;-75
2021/12/13 04:33:51;;;;;;;22.35;9.18;;;9.50;99.90;;;;;;4955356;28;20492;-76
2021/12/13 04:36:39;;;;;;;21.35;9.90;;;9.50;99.90;;;;;;4948580;29;20432;-76
2021/12/13 04:39:27;;;;;;;22.40;9.95;;;9.40;99.90;;;;;;4936560;29;20051;-76
2021/12/13 04:41:59;;;;;;;24.48;9.65;;;9.30;99.90;;;;;;4934968;29;20061;-75
2021/12/13 04:44:52;;;;;;;20.48;9.82;;;9.30;99.90;;;;;;4937297;29;20113;-75
2021/12/13 04:47:26;;;;;;;18.48;9.07;;;9.20;99.90;;;;;;4936089;29;20517;-75
2021/12/13 04:50:13;;;;;;;22.00;9.15;;;9.20;99.90;;;;;;4944920;28;20107;-75
2021/12/13 04:52:39;;;;;;;19.77;8.60;;;9.20;99.90;;;;;;4954694;28;20134;-75
2021/12/13 04:55:13;;;;;;;20.60;8.18;;;9.20;99.90;;;;;;4935405;29;20043;-75
2021/12/13 04:57:40;;;;;;;16.77;8.13;;;9.20;99.90;;;;;;4952996;29;20051;-75
2021/12/13 05:00:14;;;;;;;20.35;8.95;;;9.20;99.90;;;;;;4933889;28;20050;-75
2021/12/13 05:02:51;;;;;;;18.58;9.13;;;9.10;99.90;;;;;;4954700;28;20058;-77
2021/12/13 05:05:19;;;;;;;19.58;9.20;;;9.10;99.90;;;;;;4955684;28;20050;-75
2021/12/13 05:07:47;;;;;;;20.30;9.75;;;9.20;99.90;;;;;;4970642;28;20059;-78
2021/12/13 05:10:14;;;;;;;19.52;9.60;;;9.20;99.90;;;;;;4954786;28;20059;-75
2021/12/13 05:12:40;;;;;;;25.00;10.23;;;9.20;99.90;;;;;;4955242;28;20043;-75
2021/12/13 05:15:12;;;;;;;24.25;9.82;;;9.20;99.90;;;;;;4938041;29;20110;-76
2021/12/13 05:17:47;;;;;;;24.40;10.02;;;9.20;99.90;;;;;;4935630;29;20062;-75
2021/12/13 05:20:23;;;;;;;20.10;10.52;;;9.20;99.90;;;;;;4936787;28;20109;-75
2021/12/13 05:23:00;;;;;;;21.25;10.40;;;9.20;99.90;;;;;;4953785;28;20094;-75
2021/12/13 05:25:35;;;;;;;24.63;10.80;;;9.20;99.90;;;;;;4954794;28;20054;-75
2021/12/13 05:28:09;;;;;;;23.02;10.23;;;9.20;99.90;;;;;;4955123;28;20054;-75
2021/12/13 05:30:43;;;;;;;21.38;10.73;;;9.20;99.90;;;;;;4971564;28;20081;-75
2021/12/13 05:33:10;;;;;;;22.13;10.23;;;9.20;99.90;;;;;;4971383;28;20129;-75
2021/12/13 05:35:48;;;;;;;23.70;11.13;;;9.20;99.90;;;;;;4927766;28;20055;-75
2021/12/13 05:38:41;;;;;;;24.85;10.82;;;9.20;99.90;;;;;;4953156;28;20134;-75
2021/12/13 05:41:18;;;;;;;23.75;10.80;;;9.20;99.90;;;;;;4954012;28;20046;-75
2021/12/13 05:43:49;;;;;;;29.23;12.32;;;9.20;99.90;;;;;;4942683;29;20086;-74
2021/12/13 05:46:22;;;;;;;29.73;12.43;;;9.20;99.90;;;;;;4935565;29;20114;-77
2021/12/13 05:48:49;;;;;;;34.38;14.02;;;9.20;99.90;;;;;;4935961;29;20054;-77
2021/12/13 05:51:29;;;;;;;30.88;13.35;;;9.10;99.90;;;;;;4933943;29;20086;-75
2021/12/13 05:54:06;;;;;;;34.22;13.77;;;9.10;99.90;;;;;;4961408;28;20047;-74
2021/12/13 05:56:36;;;;;;;32.22;15.05;;;9.10;99.90;;;;;;4954431;28;20055;-75
2021/12/13 05:59:20;;;;;;;37.58;14.55;;;9.10;99.90;;;;;;4938654;28;20141;-75
2021/12/13 06:02:14;;;;;;;33.42;14.27;;;9.10;99.90;;;;;;4947861;29;20062;-75
2021/12/13 06:05:01;;;;;;;30.45;13.75;;;9.10;99.90;;;;;;4935516;29;20086;-75
2021/12/13 06:07:33;;;;;;;36.70;15.40;;;9.10;99.90;;;;;;4933925;29;20113;-77
2021/12/13 06:10:13;;;;;;;36.65;14.57;;;9.10;99.90;;;;;;4934105;29;20058;-75
2021/12/13 06:12:50;;;;;;;34.42;15.13;;;9.00;99.90;;;;;;4935148;29;20754;-78
2021/12/13 06:15:16;;;;;;;40.60;16.08;;;9.00;99.90;;;;;;4926197;29;20066;-79
2021/12/13 06:17:57;;;;;;;40.60;16.98;;;9.10;99.90;;;;;;4934584;29;20051;-79
2021/12/13 06:20:27;;;;;;;36.58;16.08;;;9.00;99.90;;;;;;4940949;28;20057;-79
2021/12/13 06:23:05;;;;;;;36.45;15.98;;;9.00;99.90;;;;;;4952543;28;20134;-79
2021/12/13 06:25:31;;;;;;;38.30;16.55;;;9.00;99.90;;;;;;4937723;28;20050;-78
2021/12/13 06:27:59;;;;;;;43.45;17.73;;;9.00;99.90;;;;;;4954032;28;20093;-78
2021/12/13 06:30:31;;;;;;;46.50;17.55;;;9.00;99.90;;;;;;4938062;28;20059;-78
2021/12/13 06:33:02;;;;;;;43.55;18.77;;;9.00;99.90;;;;;;4953331;28;20101;-78
2021/12/13 06:35:33;;;;;;;40.95;18.02;;;9.00;99.90;;;;;;4938307;29;20090;-77
2021/12/13 06:38:30;;;;;;;42.67;18.40;;;9.00;99.90;;;;;;4933604;29;20067;-78
2021/12/13 06:41:04;;;;;;;42.80;18.77;;;9.00;99.90;;;;;;4934186;29;20059;-77
2021/12/13 06:44:02;;;;;;;48.20;20.02;;;9.00;99.90;;;;;;4959255;28;20081;-78
2021/12/13 06:46:48;;;;;;;43.90;18.95;;;9.00;99.90;;;;;;4954197;28;20055;-77
2021/12/13 06:49:44;;;;;;;54.23;21.33;;;9.00;99.90;;;;;;4937844;28;20058;-77
2021/12/13 06:52:13;;;;;;;53.40;22.30;;;9.00;99.90;;;;;;4936119;28;20058;-78
2021/12/13 06:54:40;;;;;;;52.13;22.15;;;9.00;99.90;;;;;;4954185;28;20090;-78
2021/12/13 06:57:17;;;;;;;51.45;21.48;;;9.00;99.90;;;;;;4953136;28;20055;-77
2021/12/13 07:00:05;;;;;;;51.50;20.88;;;9.00;99.90;;;;;;4938390;28;20058;-78
2021/12/13 07:02:42;;;;;;;50.33;21.38;;;9.00;99.90;;;;;;4954061;28;20125;-77
2021/12/13 07:05:15;;;;;;;;;;;9.00;99.90;;;;;;4934511;29;20050;-77
2021/12/13 07:07:50;;;;;;;47.92;21.45;;;9.00;99.90;;;;;;4949264;29;19922;-77
2021/12/13 07:10:38;;;;;;;51.20;21.88;;;9.00;99.90;;;;;;4933758;29;20154;-78
2021/12/13 07:13:19;;;;;;;55.90;22.17;;;8.90;99.90;;;;;;4951338;29;20216;-77
2021/12/13 07:16:08;;;;;;;55.10;23.92;;;9.00;99.90;;;;;;4953886;28;20189;-78
2021/12/13 07:18:44;;;;;;;57.05;24.38;;;9.00;99.90;;;;;;4953566;28;20055;-77
2021/12/13 07:21:27;;;;;;;52.03;22.77;;;9.00;99.90;;;;;;4940845;29;20055;-77
2021/12/13 07:24:18;;;;;;;54.92;24.08;;;9.00;99.90;;;;;;4934594;29;20079;-77
2021/12/13 07:26:58;;;;;;;53.03;23.77;;;9.00;99.90;;;;;;4920350;29;20535;-78
2021/12/13 07:29:44;;;;;;;52.38;24.27;;;9.00;99.90;;;;;;4938343;29;20062;-76
2021/12/13 07:32:19;;;;;;;57.67;24.65;;;9.10;99.90;;;;;;4953012;28;20404;-77
2021/12/13 07:34:51;;;;;;;52.63;25.48;;;9.00;99.90;;;;;;4957037;28;20046;-78
2021/12/13 07:37:18;;;;;;;50.25;24.10;;;9.10;99.90;;;;;;4955726;28;20231;-77
2021/12/13 07:39:44;;;;;;;58.88;25.67;;;9.10;99.90;;;;;;4939916;28;20053;-77
2021/12/13 07:42:12;;;;;;;53.63;24.45;;;9.00;99.90;;;;;;4957039;28;20066;-76
2021/12/13 07:44:46;;;;;;;55.17;24.83;;;9.10;99.90;;;;;;4964398;28;20134;-77
2021/12/13 07:47:18;;;;;;;52.42;24.58;;;9.10;99.90;;;;;;4937336;29;20058;-77
2021/12/13 07:49:55;;;;;;;54.67;24.50;;;9.00;99.90;;;;;;4949476;28;20062;-78
2021/12/13 07:52:26;;;;;;;57.08;26.02;;;9.00;99.90;;;;;;4939466;28;20057;-77
2021/12/13 07:54:52;;;;;;;55.47;24.73;;;9.00;99.90;;;;;;4940948;28;20051;-77
2021/12/13 07:57:21;;;;;;;;;;;9.00;99.90;;;;;;4956703;28;20051;-77
2021/12/13 07:59:48;;;;;;;48.30;24.10;;;9.00;99.90;;;;;;4956672;28;20030;-77
2021/12/13 08:02:23;;;;;;;58.15;25.60;;;9.00;99.90;;;;;;4973245;28;20058;-77
2021/12/13 08:05:11;;;;;;;55.38;25.35;;;9.00;99.90;;;;;;4955487;28;20453;-77
2021/12/13 08:07:46;;;;;;;63.80;26.80;;;8.90;99.90;;;;;;4952110;29;20102;-77
2021/12/13 08:10:17;;;;;;;53.00;23.77;;;9.00;99.90;;;;;;4936678;29;20063;-77
2021/12/13 08:12:56;;;;;;;54.50;25.58;;;9.00;99.90;;;;;;4953696;29;20051;-76
2021/12/13 08:15:28;;;;;;;52.83;24.95;;;9.00;99.90;;;;;;4953203;29;20043;-77
2021/12/13 08:17:58;;;;;;;57.55;25.38;;;8.90;99.90;;;;;;4924293;28;20054;-77
2021/12/13 08:20:32;;;;;;;52.70;23.48;;;9.00;99.90;;;;;;4956234;28;20097;-77
2021/12/13 08:23:00;;;;;;;52.22;23.23;;;9.00;99.90;;;;;;4953901;28;20133;-77
2021/12/13 08:25:31;;;;;;;49.65;23.08;;;9.00;99.90;;;;;;4938870;29;20047;-77
2021/12/13 08:28:05;;;;;;;48.80;23.63;;;9.00;99.90;;;;;;4921828;29;20094;-77
2021/12/13 08:30:46;;;;;;;51.47;23.55;;;9.00;99.90;;;;;;4954322;29;20055;-77
2021/12/13 08:33:25;;;;;;;48.95;23.52;;;9.00;99.90;;;;;;4936515;29;20505;-77
2021/12/13 08:36:28;;;;;;;51.55;23.77;;;9.00;99.90;;;;;;4937276;29;20138;-78
2021/12/13 08:39:00;;;;;;;46.20;21.48;;;9.00;99.90;;;;;;4924825;29;20543;-77
2021/12/13 08:41:25;;;;;;;45.58;21.85;;;8.90;99.90;;;;;;4938235;28;20105;-75
2021/12/13 08:43:59;;;;;;;48.05;22.00;;;9.00;99.90;;;;;;4944792;28;20042;-75
2021/12/13 08:46:58;;;;;;;48.33;22.85;;;9.00;99.90;;;;;;4945688;28;20047;-75
2021/12/13 08:49:29;;;;;;;43.92;21.70;;;9.00;99.90;;;;;;4955331;28;20096;-74
2021/12/13 08:51:55;;;;;;;51.97;22.20;;;9.00;99.90;;;;;;4954766;28;20055;-75
2021/12/13 08:54:38;;;;;;;46.50;20.15;;;9.00;99.90;;;;;;4955358;28;20079;-75
2021/12/13 08:57:06;;;;;;;49.97;22.08;;;9.00;99.90;;;;;;4955355;28;20271;-77
2021/12/13 08:59:32;;;;;;;48.05;22.55;;;9.00;99.90;;;;;;4969302;28;20050;-75
2021/12/13 09:02:10;;;;;;;44.33;20.73;;;9.00;99.90;;;;;;4935442;28;20133;-75
2021/12/13 09:05:04;;;;;;;49.53;20.92;;;9.00;99.90;;;;;;4950881;28;20496;-78
2021/12/13 09:07:30;;;;;;;42.97;20.73;;;9.00;99.90;;;;;;4935351;28;20051;-76
2021/12/13 09:09:57;;;;;;;42.50;19.85;;;9.00;99.90;;;;;;4949492;28;20584;-76
2021/12/13 09:12:35;;;;;;;44.13;19.75;;;9.10;99.90;;;;;;4944661;28;20042;-76
2021/12/13 09:15:06;;;;;;;40.92;20.13;;;9.10;99.90;;;;;;4947796;28;20051;-76
2021/12/13 09:17:38;;;;;;;51.22;21.63;;;9.10;99.90;;;;;;4922165;28;20055;-76
2021/12/13 09:20:31;;;;;;;45.60;19.55;;;9.10;99.90;;;;;;4938739;28;20063;-79
2021/12/13 09:23:17;;;;;;;37.63;18.25;;;9.10;99.90;;;;;;4963803;28;20049;-76
2021/12/13 09:26:01;;;;;;;39.80;17.95;;;9.10;99.90;;;;;;4953583;28;20060;-76
2021/12/13 09:28:32;;;;;;;45.22;19.20;;;9.10;99.90;;;;;;4952444;28;20511;-76
2021/12/13 09:31:06;;;;;;;38.97;18.45;;;9.10;99.90;;;;;;4954818;28;20166;-76
2021/12/13 09:33:36;;;;;;;38.88;18.75;;;9.10;99.90;;;;;;4939921;28;20094;-76
2021/12/13 09:36:07;;;;;;;43.63;19.92;;;9.20;99.90;;;;;;4934947;29;20051;-76
2021/12/13 09:39:00;;;;;;;40.60;19.52;;;9.10;99.90;;;;;;4937117;28;20134;-75
2021/12/13 09:41:38;;;;;;;39.30;17.80;;;9.20;99.90;;;;;;4934939;29;20070;-77
2021/12/13 09:44:09;;;;;;;30.58;16.52;;;9.20;99.90;;;;;;4936314;29;20055;-77
2021/12/13 09:46:38;;;;;;;36.90;18.35;;;9.20;99.90;;;;;;4963673;28;20082;-77
2021/12/13 09:49:19;;;;;;;38.22;18.50;;;9.20;99.90;;;;;;4954619;28;20536;-78
2021/12/13 09:51:51;;;;;;;35.40;17.02;;;9.20;99.90;;;;;;4937030;28;20110;-77
2021/12/13 09:54:20;;;;;;;36.78;18.20;;;9.20;99.90;;;;;;4946274;29;20055;-77
2021/12/13 09:56:49;;;;;;;34.22;17.02;;;9.20;99.90;;;;;;4943172;28;20077;-78
2021/12/13 09:59:40;;;;;;;33.78;16.38;;;9.20;99.90;;;;;;4954575;28;20516;-77
2021/12/13 10:02:11;;;;;;;34.95;16.58;;;9.30;99.90;;;;;;4952197;28;20497;-77
2021/12/13 10:04:41;;;;;;;35.83;17.45;;;9.30;99.90;;;;;;4947089;28;20050;-78
2021/12/13 10:07:12;;;;;;;38.15;18.30;;;9.30;99.90;;;;;;4926464;29;20067;-79
2021/12/13 10:09:48;;;;;;;34.00;16.48;;;9.30;99.90;;;;;;4952611;29;20083;-78
2021/12/13 10:12:32;;;;;;;33.50;16.02;;;9.30;99.90;;;;;;4919413;29;20078;-77
2021/12/13 10:15:23;;;;;;;32.13;15.23;;;9.30;99.90;;;;;;4936010;29;20044;-79
2021/12/13 10:17:52;;;;;;;34.25;17.15;;;9.30;99.90;;;;;;4935301;29;20043;-79
2021/12/13 10:20:22;;;;;;;34.13;14.77;;;9.30;99.90;;;;;;4935145;29;20130;-80
2021/12/13 10:22:48;;;;;;;31.55;15.02;;;9.30;99.90;;;;;;4934445;29;20054;-80
2021/12/13 10:25:14;;;;;;;;;;;9.30;99.90;;;;;;4919305;29;20129;-80
2021/12/13 10:27:40;;;;;;;33.63;16.38;;;9.30;99.90;;;;;;4946993;28;19926;-80
2021/12/13 10:30:13;;;;;;;34.85;15.82;;;9.30;99.90;;;;;;4930563;29;20059;-79
2021/12/13 10:32:40;;;;;;;38.30;16.42;;;9.30;99.90;;;;;;4951703;28;20051;-80
2021/12/13 10:35:12;;;;;;;35.97;15.95;;;9.30;99.90;;;;;;4950564;28;20051;-80
2021/12/13 10:37:42;;;;;;;31.35;15.43;;;9.30;99.90;;;;;;4961436;28;20062;-80
2021/12/13 10:40:14;;;;;;;32.65;15.63;;;9.30;99.90;;;;;;4934944;29;20063;-80
2021/12/13 10:42:45;;;;;;;27.45;13.82;;;9.30;99.90;;;;;;4935627;29;20063;-77
2021/12/13 10:45:16;;;;;;;27.95;14.40;;;9.30;99.90;;;;;;4935361;29;20062;-79
2021/12/13 10:47:47;;;;;;;28.02;13.63;;;9.40;99.90;;;;;;4935102;29;20043;-77
2021/12/13 10:50:23;;;;;;;28.40;14.25;;;9.40;99.90;;;;;;4947456;28;20110;-79
2021/12/13 10:52:51;;;;;;;30.50;15.15;;;9.40;99.90;;;;;;4952875;28;20043;-77
2021/12/13 10:55:31;;;;;;;29.23;14.10;;;9.40;99.90;;;;;;4953328;28;20058;-76
2021/12/13 10:57:57;;;;;;;26.30;13.25;;;9.50;99.90;;;;;;4953993;28;20043;-78
2021/12/13 11:00:35;;;;;;;23.60;12.25;;;9.50;99.90;;;;;;4954378;28;20043;-77
2021/12/13 11:03:06;;;;;;;27.20;13.68;;;9.50;99.90;;;;;;4974827;28;20035;-77
2021/12/13 11:05:32;;;;;;;24.45;12.93;;;9.50;99.90;;;;;;4957866;28;20082;-76
2021/12/13 11:07:59;;;;;;;;;;;9.50;99.90;;;;;;4974388;28;20055;-76
2021/12/13 11:10:47;;;;;;;27.25;12.93;;;9.50;99.90;;;;;;4973584;28;20053;-77
2021/12/13 11:13:13;;;;;;;25.65;13.73;;;9.50;99.90;;;;;;4938879;28;20047;-78
2021/12/13 11:15:42;;;;;;;29.08;13.73;;;9.50;99.90;;;;;;4942143;28;20053;-76
2021/12/13 11:18:13;;;;;;;28.50;12.38;;;9.50;99.90;;;;;;4941434;28;20051;-76
2021/12/13 11:20:46;;;;;;;26.75;13.93;;;9.60;99.90;;;;;;4957703;28;20054;-76
2021/12/13 11:23:15;;;;;;;27.80;13.27;;;9.50;99.90;;;;;;4956583;28;20132;-76
2021/12/13 11:25:49;;;;;;;24.25;12.20;;;9.40;99.90;;;;;;4957071;28;20059;-76
2021/12/13 11:28:15;;;;;;;23.42;11.88;;;9.40;99.90;;;;;;4957483;28;20058;-78
2021/12/13 11:30:43;;;;;;;25.83;12.82;;;9.50;99.90;;;;;;4957868;28;20058;-76
2021/12/13 11:33:22;;;;;;;26.33;13.43;;;9.50;99.90;;;;;;4953807;28;20050;-76
2021/12/13 11:36:06;;;;;;;24.38;12.68;;;9.40;99.90;;;;;;4950524;28;20051;-76
2021/12/13 11:39:13;;;;;;;25.50;12.60;;;9.50;99.90;;;;;;4956759;28;20112;-76
2021/12/13 11:42:16;;;;;;;28.48;13.75;;;9.40;99.90;;;;;;4939389;28;20807;-78
2021/12/13 11:45:42;;;;;;;26.67;12.00;;;9.50;99.90;;;;;;4941612;28;20050;-77
2021/12/13 11:48:27;;;;;;;25.60;13.07;;;9.50;99.90;;;;;;4880042;29;20142;-76
2021/12/13 11:51:17;;;;;;;24.50;12.35;;;9.50;99.90;;;;;;4957036;28;20129;-78
2021/12/13 11:54:03;;;;;;;26.02;13.02;;;9.50;99.90;;;;;;4956139;28;20042;-77
2021/12/13 11:56:50;;;;;;;25.70;13.45;;;9.50;99.90;;;;;;4947546;28;20054;-76
2021/12/13 11:59:49;;;;;;;26.15;12.82;;;9.50;99.90;;;;;;4962430;28;20563;-77
2021/12/13 12:02:35;;;;;;;28.50;14.07;;;9.50;99.90;;;;;;4943236;29;20062;-76
2021/12/13 12:05:41;;;;;;;28.23;13.20;;;9.50;99.90;;;;;;4949423;28;20489;-77
2021/12/13 12:08:28;;;;;;;23.98;12.02;;;9.50;99.90;;;;;;4935086;29;20068;-76
2021/12/13 12:11:25;;;;;;;27.80;13.30;;;9.50;99.90;;;;;;4915154;29;20145;-77
2021/12/13 12:14:11;;;;;;;24.40;11.77;;;9.50;99.90;;;;;;4921787;29;20043;-77
2021/12/13 12:16:48;;;;;;;23.58;12.18;;;9.50;99.90;;;;;;4925184;29;20624;-76
2021/12/13 12:19:24;;;;;;;27.15;13.00;;;9.50;99.90;;;;;;4929485;29;20059;-78
2021/12/13 12:21:54;;;;;;;27.33;12.77;;;9.50;99.90;;;;;;4919120;29;20115;-77
2021/12/13 12:24:35;;;;;;;26.75;13.77;;;9.50;99.90;;;;;;4921399;29;20051;-78
2021/12/13 12:27:07;;;;;;;22.52;12.18;;;9.50;99.90;;;;;;4916075;29;20063;-76
2021/12/13 12:29:38;;;;;;;28.98;13.38;;;9.50;99.90;;;;;;4919595;29;20082;-77
2021/12/13 12:32:54;;;;;;;29.27;13.20;;;9.50;99.90;;;;;;4933437;29;20079;-77
2021/12/13 12:35:31;;;;;;;28.40;13.38;;;9.50;99.90;;;;;;4899786;29;20504;-76
2021/12/13 12:37:57;;;;;;;26.65;12.80;;;9.50;99.90;;;;;;4914098;29;20040;-76
2021/12/13 12:40:35;;;;;;;25.17;12.32;;;9.50;99.90;;;;;;4922907;29;20083;-78
2021/12/13 12:43:22;;;;;;;24.50;12.65;;;9.50;99.90;;;;;;4934367;29;20063;-78
2021/12/13 12:45:52;;;;;;;26.65;11.80;;;9.50;99.90;;;;;;4933426;29;20508;-76
2021/12/13 12:48:23;;;;;;;29.85;13.90;;;9.50;99.90;;;;;;4933865;29;20448;-76
2021/12/13 12:51:22;;;;;;;25.27;12.55;;;9.50;99.90;;;;;;4934526;29;20044;-76
2021/12/13 12:54:00;;;;;;;21.77;12.13;;;9.50;99.90;;;;;;4927644;29;20091;-76
2021/12/13 12:56:32;;;;;;;26.67;12.98;;;9.50;99.90;;;;;;4898176;29;20048;-77
2021/12/13 12:59:09;;;;;;;25.15;11.77;;;9.50;99.90;;;;;;4915196;29;20044;-76
2021/12/13 13:01:43;;;;;;;22.55;12.38;;;9.50;99.90;;;;;;4913790;29;20048;-77
2021/12/13 13:04:23;;;;;;;29.05;13.20;;;9.50;99.90;;;;;;4899174;29;20483;-76
2021/12/13 13:06:55;;;;;;;27.33;12.75;;;9.50;99.90;;;;;;4912601;29;20060;-76
2021/12/13 13:09:32;;;;;;;25.30;13.25;;;9.50;99.90;;;;;;4915909;29;20060;-77
2021/12/13 13:11:57;;;;;;;27.00;12.18;;;9.50;99.90;;;;;;4917313;29;20083;-76
2021/12/13 13:14:30;;;;;;;23.67;12.88;;;9.50;99.90;;;;;;4917615;29;20075;-76
2021/12/13 13:17:05;;;;;;;21.42;11.50;;;9.50;99.90;;;;;;4934188;29;20043;-76
2021/12/13 13:19:39;;;;;;;23.25;12.07;;;9.50;99.90;;;;;;4932780;29;20053;-76
2021/12/13 13:22:30;;;;;;;22.88;11.70;;;9.50;99.90;;;;;;4931656;29;20048;-76
2021/12/13 13:25:00;;;;;;;23.80;12.13;;;9.50;99.90;;;;;;4933199;29;20047;-76
2021/12/13 13:27:30;;;;;;;23.30;13.02;;;9.50;99.90;;;;;;4933341;29;20102;-76
2021/12/13 13:29:56;;;;;;;27.10;12.90;;;9.50;99.90;;;;;;4933148;29;20090;-76